Flight Track Log - Related Links

Times and Time Zones

All times are in EDT time to prevent confusion due to time zone crossing. See the N2103M flight status page for this flight to view local times or setup timezone preferences in your user account.

Time Position Orientation Groundspeed Altitude Reporting Facility
EDT Latitude Longitude Course Direction KTS MPH feet Rate Location/Type
Sat 12:01:17 PM 38.2833 -78.0833 360° North 118 136 2,200  Level Potomac TRACON
Sat 12:02:17 PM 38.3167 -78.0833 360° North 115 132 2,900 600 Climbing Potomac TRACON
Sat 12:03:17 PM 38.3500 -78.0833 360° North 114 131 3,400 500 Climbing Potomac TRACON
Sat 12:04:17 PM 38.3667 -78.1000 322° Northwest 115 132 3,900 496 Climbing Potomac TRACON
Sat 12:05:18 PM 38.4000 -78.1167 339° North 113 130 4,400 496 Climbing Potomac TRACON
Sat 12:06:18 PM 38.4333 -78.1167 360° North 114 131 4,900 450 Climbing Potomac TRACON
Sat 12:07:18 PM 38.4667 -78.1333 339° North 111 128 5,300 365 Climbing Potomac TRACON
Sat 12:08:13 PM 38.5000 -78.1333 360° North 115 132 5,600 365 Climbing Potomac TRACON
Sat 12:09:13 PM 38.5167 -78.1500 322° Northwest 117 135 6,000 397 Climbing Potomac TRACON
Sat 12:10:14 PM 38.5500 -78.1500 360° North 114 131 6,400 378 Climbing Potomac TRACON
Sat 12:11:20 PM 38.6000 -78.1500 360° North 120 138 6,800 350 Climbing Potomac TRACON
Sat 12:12:14 PM 38.6167 -78.1667 322° Northwest 115 132 7,100 365 Climbing Potomac TRACON
Sat 12:13:15 PM 38.6500 -78.1667 360° North 120 138 7,500 347 Climbing Potomac TRACON
Sat 12:14:15 PM 38.6833 -78.1833 339° North 118 136 7,800 300 Climbing Potomac TRACON
Sat 12:15:15 PM 38.7167 -78.1833 360° North 122 140 8,100 143 Climbing Potomac TRACON
Sat 12:16:21 PM 38.7500 -78.2000 339° North 125 144 8,100  Level Potomac TRACON
Sat 12:17:22 PM 38.8000 -78.2000 360° North 141 162 8,100  Level Potomac TRACON
Sat 12:18:22 PM 38.8333 -78.2167 339° North 143 165 8,100 209 Level Potomac TRACON
Sat 12:19:17 PM 38.8667 -78.2333 339° North 124 143 8,500 365 Climbing Potomac TRACON
Sat 12:20:17 PM 38.9000 -78.2333 360° North 117 135 8,800 300 Climbing Potomac TRACON
Sat 12:21:17 PM 38.9333 -78.2500 339° North 119 137 9,100 224 Climbing Potomac TRACON
Sat 12:22:04 PM 38.9567 -78.2611 340° North 135 155 9,200  Climbing Washington Center
Sat 12:23:05 PM 38.9919 -78.2758 342° North 135 155 9,100 -49 Descending Washington Center
Sat 12:24:06 PM 39.0228 -78.2903 340° North 135 155 9,100  Level Washington Center
Sat 12:25:06 PM 39.0558 -78.3075 338° Northwest 129 148 9,100  Level Washington Center
Sat 12:26:06 PM 39.0867 -78.3219 340° North 124 143 9,100 51 Level Washington Center
Sat 12:27:04 PM 39.1197 -78.3367 341° North 124 143 9,200 50 Climbing Washington Center
Sat 12:28:05 PM 39.1486 -78.3483 343° North 124 143 9,200 -49 Level Washington Center
Sat 12:29:06 PM 39.1819 -78.3550 351° North 119 137 9,100  Descending Washington Center
Sat 12:30:04 PM 39.2150 -78.3617 351° North 114 131 9,200 51 Climbing Washington Center
Sat 12:31:04 PM 39.2483 -78.3683 351° North 114 131 9,200 50 Level Washington Center
Sat 12:32:05 PM 39.2836 -78.3750 352° North 119 137 9,300 -49 Climbing Washington Center
Sat 12:33:06 PM 39.3186 -78.3844 348° North 125 144 9,100 -202 Descending Washington Center
Sat 12:34:04 PM 39.3542 -78.3911 352° North 125 144 8,900  Descending Washington Center
Sat 12:35:05 PM 39.3894 -78.3897 North 125 144 9,100 99 Climbing Washington Center
Sat 12:36:05 PM 39.4231 -78.3803 12° North 125 144 9,100 30 Level Washington Center
Sat 12:38:24 PM 39.5100 -78.3686 North 130 150 9,200  Climbing Cleveland Center
Sat 12:39:24 PM 39.5431 -78.3622 North 130 150 9,100 -50 Descending Cleveland Center
Sat 12:40:24 PM 39.5825 -78.3556 North 130 150 9,100  Level Cleveland Center
Sat 12:41:24 PM 39.6200 -78.3489 North 130 150 9,100 50 Level Cleveland Center
Sat 12:42:24 PM 39.6531 -78.3397 12° North 130 150 9,200 50 Climbing Cleveland Center
Sat 12:43:24 PM 39.6906 -78.3306 11° North 130 150 9,200 -50 Level Cleveland Center
Sat 12:44:24 PM 39.7281 -78.3264 North 130 150 9,100 -100 Descending Cleveland Center
Sat 12:45:24 PM 39.7653 -78.3172 11° North 130 150 9,000 50 Descending Cleveland Center
Sat 12:46:24 PM 39.8028 -78.3133 North 130 150 9,200 100 Climbing Cleveland Center
Sat 12:47:24 PM 39.8381 -78.3067 North 125 144 9,200  Level Cleveland Center
Sat 12:48:24 PM 39.8756 -78.3000 North 125 144 9,200  Level Cleveland Center
Sat 12:49:24 PM 39.9106 -78.2906 12° North 125 144 9,200  Level Cleveland Center
Sat 12:50:24 PM 39.9439 -78.2814 12° North 125 144 9,200 -50 Level Cleveland Center
Sat 12:51:24 PM 39.9853 -78.2744 North 125 144 9,100 -100 Descending Cleveland Center
Sat 12:52:24 PM 40.0186 -78.2681 North 125 144 9,000  Descending Cleveland Center
Sat 12:53:24 PM 40.0581 -78.2639 North 125 144 9,100 100 Climbing Cleveland Center
Sat 12:54:24 PM 40.0956 -78.2600 North 125 144 9,200 50 Climbing Cleveland Center
Sat 12:55:24 PM 40.1289 -78.2533 North 125 144 9,200  Level Cleveland Center
Sat 12:56:24 PM 40.1642 -78.2467 North 125 144 9,200  Level Cleveland Center
Sat 12:57:24 PM 40.1994 -78.2400 North 125 144 9,200 -50 Level Cleveland Center
Sat 12:58:24 PM 40.2389 -78.2331 North 125 144 9,100  Descending Cleveland Center
Sat 12:59:24 PM 40.2742 -78.2239 11° North 125 144 9,200  Climbing Cleveland Center
Sat 01:00:24 PM 40.3094 -78.2169 North 125 144 9,100 -50 Descending Cleveland Center
Sat 01:01:24 PM 40.3469 -78.2103 North 125 144 9,100  Level Cleveland Center
Sat 01:02:24 PM 40.3842 -78.2008 11° North 125 144 9,100 -41 Level Cleveland Center
Sat 01:03:52 PM 40.4311 -78.1856 14° North 124 143 9,000  Descending New Center
Sat 01:04:53 PM 40.4667 -78.1811 North 124 143 9,100 99 Climbing New Center
Sat 01:05:53 PM 40.5003 -78.1767 North 124 143 9,200  Climbing New Center
Sat 01:06:53 PM 40.5361 -78.1722 North 124 143 9,100 -102 Descending New Center
Sat 01:07:51 PM 40.5733 -78.1761 355° North 124 143 9,000 -51 Descending New Center
Sat 01:08:51 PM 40.6086 -78.1800 355° North 124 143 9,000 49 Level New Center
Sat 01:09:54 PM 40.6397 -78.1806 359° North 119 137 9,100 49 Climbing New Center
Sat 01:10:53 PM 40.6753 -78.1817 359° North 119 137 9,100 -51 Level New Center
Sat 01:11:51 PM 40.7092 -78.1717 13° North 124 143 9,000  Descending New Center
Sat 01:12:52 PM 40.7439 -78.1508 24° Northeast 124 143 9,100 50 Climbing New Center
Sat 01:13:52 PM 40.7783 -78.1325 22° Northeast 130 150 9,100  Level New Center
Sat 01:14:53 PM 40.8189 -78.1150 18° North 130 150 9,100  Level New Center
Sat 01:15:51 PM 40.8553 -78.1025 15° North 130 150 9,100 -51 Level New Center
Sat 01:16:51 PM 40.8933 -78.0928 11° North 130 150 9,000 -50 Descending New Center
Sat 01:17:52 PM 40.9314 -78.0858 North 130 150 9,000  Level New Center
Sat 01:18:53 PM 40.9653 -78.0758 13° North 124 143 9,000 52 Level New Center
Sat 01:19:48 PM 40.9983 -78.0658 13° North 124 143 9,100 52 Climbing Cleveland Center
Sat 01:20:48 PM 41.0297 -78.0672 358° North 124 143 9,100  Level Cleveland Center
Sat 01:21:48 PM 41.0672 -78.0714 355° North 124 143 9,100  Level Cleveland Center
Sat 01:22:48 PM 41.1008 -78.0728 358° North 124 143 9,100 -50 Level Cleveland Center
Sat 01:23:48 PM 41.1361 -78.0658 North 124 143 9,000  Descending Cleveland Center
Sat 01:24:48 PM 41.1733 -78.0589 North 124 143 9,100 50 Climbing Cleveland Center
Sat 01:25:48 PM 41.2067 -78.0550 North 124 143 9,100  Level Cleveland Center
Sat 01:26:48 PM 41.2419 -78.0453 12° North 124 143 9,100 50 Level Cleveland Center
Sat 01:27:48 PM 41.2772 -78.0411 North 124 143 9,200  Climbing Cleveland Center
Sat 01:28:48 PM 41.3106 -78.0344 North 124 143 9,100 -100 Descending Cleveland Center
Sat 01:29:48 PM 41.3478 -78.0244 11° North 124 143 9,000  Descending Cleveland Center
Sat 01:30:48 PM 41.3808 -78.0178 North 124 143 9,100 50 Climbing Cleveland Center
Sat 01:31:48 PM 41.4161 -78.0108 North 124 143 9,100  Level Cleveland Center
Sat 01:32:48 PM 41.4494 -78.0039 North 124 143 9,100  Level Cleveland Center
Sat 01:33:48 PM 41.4847 -77.9942 12° North 124 143 9,100  Level Cleveland Center
Sat 01:34:48 PM 41.5158 -77.9903 North 124 143 9,100  Level Cleveland Center
Sat 01:35:48 PM 41.5511 -77.9833 North 124 143 9,100  Level Cleveland Center
Sat 01:36:48 PM 41.5864 -77.9736 12° North 124 143 9,100 50 Level Cleveland Center
Sat 01:37:48 PM 41.6217 -77.9664 North 124 143 9,200 50 Climbing Cleveland Center
Sat 01:38:48 PM 41.6592 -77.9622 North 124 143 9,200 100 Level Cleveland Center
Sat 01:39:48 PM 41.6903 -77.9553 North 119 137 9,400 250 Climbing Cleveland Center
Sat 01:40:48 PM 41.7172 -77.9486 10° North 112 129 9,700 250 Climbing Cleveland Center
Sat 01:41:48 PM 41.7461 -77.9419 10° North 100 115 9,900 250 Climbing Cleveland Center
Sat 01:42:48 PM 41.7753 -77.9353 10° North 100 115 10,200 200 Climbing Cleveland Center
Sat 01:43:48 PM 41.8064 -77.9339 North 105 121 10,300  Climbing Cleveland Center
Sat 01:44:48 PM 41.8397 -77.9297 North 105 121 10,200 -100 Descending Cleveland Center
Sat 01:45:48 PM 41.8750 -77.9283 North 110 127 10,100 -150 Descending Cleveland Center
Sat 01:46:48 PM 41.9189 -77.9264 North 128 147 9,900 -100 Descending Cleveland Center
Sat 01:47:48 PM 41.9542 -77.9222 North 133 153 9,900 50 Level Cleveland Center
Sat 01:48:48 PM 41.9875 -77.9153 North 127 146 10,000 50 Climbing Cleveland Center
Sat 01:49:48 PM 42.0225 -77.9025 15° North 122 140 10,000 50 Level Cleveland Center
Sat 01:50:48 PM 42.0536 -77.8928 13° North 122 140 10,100 100 Climbing Cleveland Center
Sat 01:51:48 PM 42.0886 -77.8803 15° North 122 140 10,200 50 Climbing Cleveland Center
Sat 01:52:48 PM 42.1239 -77.8703 12° North 122 140 10,200 -50 Level Cleveland Center
Sat 01:53:48 PM 42.1569 -77.8550 19° North 122 140 10,100 -50 Descending Cleveland Center
Sat 01:54:48 PM 42.1900 -77.8422 16° North 122 140 10,100  Level Cleveland Center
Sat 01:55:48 PM 42.2253 -77.8381 North 122 140 10,100  Level Cleveland Center
Sat 01:56:48 PM 42.2586 -77.8336 North 122 140 10,100  Level Cleveland Center
Sat 01:57:48 PM 42.2919 -77.8322 North 122 140 10,100  Level Cleveland Center
Sat 01:58:27 PM 42.3086 -77.8289 North 119 137 10,100  Level Cleveland Center
Sat 01:59:21 PM 42.3419 -77.8272 North 121 139 10,100  Level Cleveland Center
Sat 02:00:16 PM 42.3731 -77.8203 North 123 142 10,100  Level Cleveland Center
Sat 02:00:48 PM 42.3936 -77.8167 North 122 140 10,100 -182 Level Cleveland Center
Sat 02:01:22 PM 42.4103 -77.8158 North 131 151 9,900 -126 Descending Cleveland Center
Sat 02:02:23 PM 42.4478 -77.8114 North 129 148 9,900 98 Level Cleveland Center
Sat 02:03:24 PM 42.4789 -77.8100 North 110 127 10,100 99 Climbing Cleveland Center
Sat 02:04:24 PM 42.5122 -77.8086 North 113 130 10,100 -248 Level Cleveland Center
Sat 02:05:25 PM 42.5497 -77.8069 North 138 159 9,600 -446 Descending Cleveland Center
Sat 02:06:25 PM 42.5872 -77.8081 359° North 142 163 9,200 -545 Descending Cleveland Center
Sat 02:07:26 PM 42.6289 -77.8006 North 146 168 8,500 -750 Descending Cleveland Center
Sat 02:08:33 PM 42.6789 -77.7983 North 154 177 7,600 -793 Descending Cleveland Center
Sat 02:09:27 PM 42.7142 -77.7883 12° North 156 180 6,900 -835 Descending Cleveland Center
Sat 02:10:28 PM 42.7581 -77.7978 351° North 137 158 6,000 -844 Descending Cleveland Center
Sat 02:11:35 PM 42.7978 -77.8072 350° North 145 167 5,100 -545 Descending Cleveland Center
Sat 02:12:29 PM 42.8336 -77.8169 349° North 125 144 4,900 -347 Descending Cleveland Center
Sat 02:13:36 PM 42.8714 -77.8267 349° North 128 147 4,400 -520 Descending Cleveland Center
Sat 02:14:36 PM 42.9028 -77.8394 343° North 130 150 3,800 -545 Descending Cleveland Center
Sat 02:15:37 PM 42.9406 -77.8519 346° North 126 145 3,300 -422 Descending Cleveland Center
Sat 02:16:44 PM 42.9786 -77.8644 346° North 119 137 2,900 -149 Descending Cleveland Center
Sat 02:17:38 PM 43.0036 -77.8719 348° North 91 105 3,000  Climbing Cleveland Center
Sat 02:18:39 PM 43.0331 -77.8764 354° North 101 116 2,900 -49 Descending Cleveland Center
Sat 02:19:40 PM 43.0581 -77.8781 357° North 91 105 2,900  Level Cleveland Center
Sat 02:20:40 PM 43.0833 -77.8914 339° North 96 110 2,900  Level Cleveland Center

Login

Don't have an account? Register now (free) for customized features, flight alerts, and more!